Time;durP1;ratioP1;P1;durP2;ratioP2;P2;SDS_P1;SDS_P2;PMS_P1;PMS_P2;Temp;Humidity;BMP_temperature;BMP_pressure;BME280_temperature;BME280_humidity;BME280_pressure;Samples;Min_cycle;Max_cycle;Signal;HPM_P1;HPM_P2
2022/08/29 00:01:14;;;;;;;5.05;2.78;;;;;;;19.83;66.34;93040.59;2067632;69;20475;-76
2022/08/29 00:03:40;;;;;;;4.13;2.53;;;;;;;19.87;65.68;93046.44;2070764;69;20475;-77
2022/08/29 00:06:06;;;;;;;5.50;2.78;;;;;;;19.59;66.59;93049.81;2071072;69;20603;-76
2022/08/29 00:08:31;;;;;;;8.57;2.80;;;;;;;19.75;65.86;93052.50;2070732;69;20133;-77
2022/08/29 00:10:57;;;;;;;6.72;2.97;;;;;;;19.61;66.40;93046.31;2070958;69;20159;-76
2022/08/29 00:13:23;;;;;;;6.43;3.08;;;;;;;19.60;66.74;93048.44;2070675;69;20172;-76
2022/08/29 00:15:49;;;;;;;5.93;2.75;;;;;;;19.75;65.65;93052.50;2070636;69;20160;-76
2022/08/29 00:18:17;;;;;;;3.42;2.65;;;;;;;19.74;66.22;93057.47;2071262;69;20152;-77
2022/08/29 00:20:44;;;;;;;6.85;2.90;;;;;;;19.71;66.31;93055.94;2071303;69;20183;-77
2022/08/29 00:23:11;;;;;;;6.20;2.90;;;;;;;19.75;65.81;93049.66;2068053;69;20135;-74
2022/08/29 00:25:36;;;;;;;5.65;3.25;;;;;;;19.66;66.35;93053.63;2071566;69;20239;-76
2022/08/29 00:28:03;;;;;;;3.70;2.70;;;;;;;19.62;66.46;93062.06;2071220;69;20251;-75
2022/08/29 00:30:29;;;;;;;7.10;3.08;;;;;;;19.42;67.38;93048.53;2068266;69;20762;-75
2022/08/29 00:32:55;;;;;;;5.20;2.78;;;;;;;19.50;66.79;93048.06;2071265;69;20247;-75
2022/08/29 00:35:24;;;;;;;4.28;2.80;;;;;;;19.64;65.73;93051.41;2071306;69;20140;-75
2022/08/29 00:37:51;;;;;;;3.80;2.55;;;;;;;19.60;66.29;93045.56;2071212;69;20156;-75
2022/08/29 00:40:22;;;;;;;5.22;2.97;;;;;;;19.52;67.23;93051.75;2068078;69;20125;-76
2022/08/29 00:42:48;;;;;;;3.33;2.50;;;;;;;19.50;66.77;93051.66;2071232;69;20312;-76
2022/08/29 00:45:16;;;;;;;6.38;2.90;;;;;;;19.54;66.96;93046.09;2071282;69;20221;-75
2022/08/29 00:47:55;;;;;;;3.42;2.67;;;;;;;19.46;67.23;93051.53;2071162;69;20221;-74
2022/08/29 00:50:30;;;;;;;6.35;3.13;;;;;;;19.37;67.45;93040.50;2071046;69;20136;-74
2022/08/29 00:52:58;;;;;;;4.32;2.85;;;;;;;19.43;66.37;93041.44;2067951;69;20167;-76
2022/08/29 00:55:28;;;;;;;5.05;2.70;;;;;;;19.37;67.50;93035.50;2071544;69;20155;-77
2022/08/29 00:58:10;;;;;;;8.63;2.90;;;;;;;19.41;66.67;93041.38;2071389;69;20146;-77
2022/08/29 01:00:40;;;;;;;8.63;2.40;;;;;;;19.31;67.14;93046.75;2071736;69;20495;-76
2022/08/29 01:03:07;;;;;;;6.80;3.00;;;;;;;19.36;66.69;93044.75;2071649;69;20245;-76
2022/08/29 01:05:35;;;;;;;5.72;2.47;;;;;;;19.22;67.53;93036.44;2071360;69;20235;-75
2022/08/29 01:08:01;;;;;;;7.00;2.60;;;;;;;19.21;67.44;93040.69;2070884;69;20206;-75
2022/08/29 01:13:12;;;;;;;5.00;2.70;;;;;;;19.01;68.77;93029.28;2071416;69;20680;-75
2022/08/29 01:15:40;;;;;;;5.82;2.80;;;;;;;19.19;65.57;93040.59;2071163;69;20518;-76
2022/08/29 01:18:08;;;;;;;4.07;2.80;;;;;;;19.08;66.67;93036.69;2071386;69;20175;-76
2022/08/29 01:20:49;;;;;;;8.13;2.78;;;;;;;18.97;67.70;93038.47;2071256;69;20208;-76
2022/08/29 01:23:46;;;;;;;5.63;2.45;;;;;;;19.00;67.20;93042.09;2071241;69;20151;-76
2022/08/29 01:26:12;;;;;;;9.27;2.92;;;;;;;19.02;66.68;93042.19;2070189;69;20163;-76
2022/08/29 01:28:42;;;;;;;5.25;2.88;;;;;;;18.88;68.22;93038.84;2071022;69;20203;-77
2022/08/29 01:31:12;;;;;;;4.70;2.70;;;;;;;18.81;68.50;93034.28;2071273;69;20148;-77
2022/08/29 01:33:51;;;;;;;6.88;2.80;;;;;;;18.78;68.70;93034.22;2071173;69;20171;-77
2022/08/29 01:36:24;;;;;;;7.10;3.22;;;;;;;18.83;68.33;93020.09;2071067;69;20456;-76
2022/08/29 01:38:50;;;;;;;7.55;2.90;;;;;;;18.74;68.61;93028.38;2071176;69;20543;-77
2022/08/29 01:41:19;;;;;;;4.63;2.75;;;;;;;18.72;68.89;93030.41;2071047;69;20140;-76
2022/08/29 01:43:48;;;;;;;4.60;2.83;;;;;;;18.76;68.67;93024.84;2071140;69;20229;-76
2022/08/29 01:46:19;;;;;;;5.15;2.78;;;;;;;18.68;68.87;93022.41;2071058;69;20744;-76
2022/08/29 01:48:47;;;;;;;6.05;2.90;;;;;;;18.79;66.93;93029.25;2071146;69;20159;-75
2022/08/29 01:51:13;;;;;;;4.72;2.95;;;;;;;18.67;68.71;93017.38;2067804;69;20132;-76
2022/08/29 01:53:40;;;;;;;4.93;2.80;;;;;;;18.75;67.32;93021.28;2071309;69;20144;-76
2022/08/29 01:56:18;;;;;;;5.07;2.85;;;;;;;18.87;66.96;93028.78;2070957;69;20164;-76
2022/08/29 01:58:50;;;;;;;8.65;2.63;;;;;;;18.67;68.38;93028.78;2071125;69;20179;-77
2022/08/29 02:01:22;;;;;;;8.80;2.85;;;;;;;18.67;68.73;93031.63;2071247;69;20144;-76
2022/08/29 02:03:49;;;;;;;6.70;3.15;;;;;;;18.53;69.88;93029.72;2071307;69;20191;-75
2022/08/29 02:06:17;;;;;;;4.93;2.78;;;;;;;18.51;69.25;93026.81;2071226;69;20144;-76
2022/08/29 02:08:44;;;;;;;4.38;2.67;;;;;;;18.56;68.81;93024.84;2071458;69;20161;-76
2022/08/29 02:11:11;;;;;;;5.68;2.97;;;;;;;18.57;69.02;93023.44;2070938;69;20537;-76
2022/08/29 02:13:38;;;;;;;5.53;3.28;;;;;;;18.50;69.52;93030.31;2067424;69;20175;-75
2022/08/29 02:16:04;;;;;;;5.05;3.25;;;;;;;17.80;71.83;93026.97;2071051;69;20148;-76
2022/08/29 02:18:30;;;;;;;4.60;3.00;;;;;;;18.09;70.33;93028.06;2071057;69;20148;-76
2022/08/29 02:20:57;;;;;;;5.75;2.65;;;;;;;18.24;70.29;93027.97;2071328;69;20237;-75
2022/08/29 02:23:22;;;;;;;7.05;2.80;;;;;;;18.34;68.85;93021.16;2071303;69;20141;-75
2022/08/29 02:25:48;;;;;;;4.60;2.70;;;;;;;18.26;69.83;93033.00;2067697;69;20190;-76
2022/08/29 02:28:16;;;;;;;5.40;2.55;;;;;;;18.27;70.15;93029.47;2071039;69;20136;-77
2022/08/29 02:30:45;;;;;;;12.07;2.88;;;;;;;18.30;69.35;93030.28;2072347;69;20608;-75
2022/08/29 02:33:14;;;;;;;6.85;2.83;;;;;;;18.19;69.47;93032.03;2073423;69;20269;-76
2022/08/29 02:35:41;;;;;;;8.02;3.17;;;;;;;18.27;70.16;93029.47;2073112;69;20144;-74
2022/08/29 02:38:07;;;;;;;6.32;2.80;;;;;;;18.27;70.44;93026.63;2073587;69;20221;-75
2022/08/29 02:40:33;;;;;;;3.90;2.80;;;;;;;18.33;69.94;93028.25;2073718;69;20332;-76
2022/08/29 02:42:59;;;;;;;7.30;3.05;;;;;;;18.43;69.31;93028.63;2074162;69;20172;-74
2022/08/29 02:45:26;;;;;;;6.85;3.13;;;;;;;18.43;69.68;93032.22;2072632;69;20174;-75
2022/08/29 02:47:52;;;;;;;6.30;2.92;;;;;;;18.35;70.31;93039.72;2065231;69;20164;-76
2022/08/29 02:50:18;;;;;;;8.70;3.13;;;;;;;18.31;70.01;93039.56;2071192;69;20156;-76
2022/08/29 02:52:44;;;;;;;6.43;2.83;;;;;;;18.13;70.97;93040.34;2067962;69;20163;-76
2022/08/29 02:55:21;;;;;;;6.47;3.20;;;;;;;18.23;70.80;93037.88;2068093;69;20626;-78
2022/08/29 02:57:47;;;;;;;7.43;3.00;;;;;;;18.37;69.50;93036.94;2071399;69;20160;-76
2022/08/29 03:00:17;;;;;;;7.72;2.88;;;;;;;18.32;69.31;93030.34;2071563;69;20220;-75
2022/08/29 03:02:45;;;;;;;6.47;3.10;;;;;;;18.39;68.75;93037.03;2071269;69;20160;-75
2022/08/29 03:05:10;;;;;;;9.32;3.05;;;;;;;18.46;67.80;93035.84;2071566;69;20183;-77
2022/08/29 03:07:37;;;;;;;5.85;2.50;;;;;;;18.47;68.64;93034.50;2071351;69;20156;-76
2022/08/29 03:10:04;;;;;;;5.63;2.95;;;;;;;18.41;69.40;93034.97;2071451;69;20144;-75
2022/08/29 03:12:35;;;;;;;5.20;3.00;;;;;;;18.47;68.73;93031.63;2071162;69;20150;-75
2022/08/29 03:15:02;;;;;;;5.90;2.85;;;;;;;18.33;68.74;93033.97;2071343;69;20668;-76
2022/08/29 03:17:28;;;;;;;5.70;2.80;;;;;;;18.48;68.77;93022.41;2071428;69;20523;-76
2022/08/29 03:19:53;;;;;;;5.00;2.40;;;;;;;18.49;69.03;93023.16;2071214;69;20159;-75
2022/08/29 03:22:19;;;;;;;8.20;3.22;;;;;;;18.41;70.17;93020.72;2071341;69;20152;-75
2022/08/29 03:24:45;;;;;;;4.82;2.78;;;;;;;18.41;70.82;93022.84;2071314;69;20155;-76
2022/08/29 03:27:10;;;;;;;8.02;3.00;;;;;;;18.49;68.91;93009.63;2064915;69;20216;-76
2022/08/29 03:29:37;;;;;;;6.00;3.13;;;;;;;18.53;69.38;93014.75;2071480;69;20225;-76
2022/08/29 03:32:04;;;;;;;6.25;2.50;;;;;;;18.38;70.88;93015.63;2071259;69;20188;-76
2022/08/29 03:34:30;;;;;;;6.60;2.97;;;;;;;18.51;68.29;93012.56;2071318;69;20154;-75
2022/08/29 03:36:56;;;;;;;4.80;2.88;;;;;;;18.58;69.33;93019.19;2071304;69;20148;-76
2022/08/29 03:39:22;;;;;;;5.85;2.92;;;;;;;18.59;68.94;93017.81;2071065;69;20235;-75
2022/08/29 03:41:48;;;;;;;5.95;2.90;;;;;;;18.54;70.58;93016.94;2071115;69;20168;-76
2022/08/29 03:44:14;;;;;;;5.13;2.90;;;;;;;18.50;70.56;93013.94;2071225;69;20271;-76
2022/08/29 03:46:39;;;;;;;5.30;2.58;;;;;;;18.51;70.46;93006.13;2071289;69;20148;-76
2022/08/29 03:49:06;;;;;;;6.32;2.70;;;;;;;18.41;69.52;93012.16;2067834;69;20220;-76
2022/08/29 03:51:36;;;;;;;4.35;2.78;;;;;;;18.46;69.44;93016.66;2071231;69;20743;-76
2022/08/29 03:54:03;;;;;;;5.20;2.60;;;;;;;18.50;70.43;93013.94;2071755;69;20155;-76
2022/08/29 03:56:28;;;;;;;8.60;2.85;;;;;;;18.48;71.71;93016.00;2071528;69;20603;-76
2022/08/29 03:58:55;;;;;;;3.95;2.70;;;;;;;18.45;71.85;93020.88;2068419;69;20140;-76
2022/08/29 04:01:25;;;;;;;4.05;2.35;;;;;;;18.60;68.71;93025.00;2071477;69;20176;-75
2022/08/29 04:03:52;;;;;;;5.15;2.70;;;;;;;18.54;70.95;93030.47;2071893;69;20148;-76
2022/08/29 04:06:18;;;;;;;4.60;2.83;;;;;;;18.54;70.73;93025.47;2071829;69;20176;-76
2022/08/29 04:08:48;;;;;;;3.50;2.58;;;;;;;18.59;70.68;93025.63;2072004;69;20152;-77
2022/08/29 04:11:14;;;;;;;5.32;2.70;;;;;;;18.44;70.37;93025.13;2068151;69;20144;-78
2022/08/29 04:13:40;;;;;;;4.88;2.80;;;;;;;18.13;73.07;93028.22;2071590;69;20144;-76
2022/08/29 04:16:13;;;;;;;3.35;2.63;;;;;;;18.00;73.77;93030.59;2071644;69;20153;-75
2022/08/29 04:18:39;;;;;;;5.25;2.80;;;;;;;18.38;71.46;93027.75;2071769;69;20225;-75
2022/08/29 04:21:06;;;;;;;4.60;2.70;;;;;;;18.43;71.40;93026.50;2071591;69;20152;-76
2022/08/29 04:23:33;;;;;;;4.30;3.05;;;;;;;18.45;71.26;93032.28;2071649;69;20137;-75
2022/08/29 04:25:58;;;;;;;5.25;2.95;;;;;;;18.26;72.55;93033.00;2071667;69;20645;-76
2022/08/29 04:28:25;;;;;;;4.80;2.80;;;;;;;18.23;72.30;93037.13;2071806;69;20153;-76
2022/08/29 04:30:52;;;;;;;4.53;3.08;;;;;;;18.39;72.58;93037.03;2071790;69;20156;-76
2022/08/29 04:33:22;;;;;;;6.80;3.13;;;;;;;18.38;72.81;93029.88;2071420;69;20144;-76
2022/08/29 04:35:48;;;;;;;4.10;2.80;;;;;;;18.51;71.14;93031.78;2071750;69;20164;-76
2022/08/29 04:38:15;;;;;;;6.82;3.28;;;;;;;18.54;70.45;93036.88;2071695;69;20470;-77
2022/08/29 04:40:41;;;;;;;6.15;2.53;;;;;;;18.57;70.77;93040.56;2071537;69;20152;-76
2022/08/29 04:43:08;;;;;;;5.47;2.70;;;;;;;18.44;71.44;93047.91;2071462;69;20526;-77
2022/08/29 04:45:39;;;;;;;9.13;2.90;;;;;;;18.47;70.80;93043.03;2071632;69;20151;-77
2022/08/29 04:48:05;;;;;;;5.80;3.15;;;;;;;18.56;70.62;93044.06;2071752;69;20206;-77
2022/08/29 04:50:31;;;;;;;5.43;2.67;;;;;;;18.66;69.85;93058.69;2071494;69;20156;-75
2022/08/29 04:52:57;;;;;;;6.22;2.60;;;;;;;18.53;70.40;93054.66;2071483;69;20163;-77
2022/08/29 04:55:24;;;;;;;6.97;2.80;;;;;;;18.60;70.62;93055.59;2071566;69;20239;-76
2022/08/29 04:57:51;;;;;;;3.22;2.78;;;;;;;18.61;69.28;93048.53;2071546;69;20225;-76
2022/08/29 05:00:21;;;;;;;6.70;3.00;;;;;;;18.34;72.28;93055.38;2071434;69;20600;-76
2022/08/29 05:02:49;;;;;;;4.10;2.92;;;;;;;18.54;71.79;93056.13;2071365;69;20215;-76
2022/08/29 05:05:16;;;;;;;7.72;2.60;;;;;;;18.55;72.29;93071.81;2071273;69;20155;-76
2022/08/29 05:07:41;;;;;;;2.65;2.25;;;;;;;18.58;71.60;93067.66;2071562;69;20600;-77
2022/08/29 05:10:12;;;;;;;5.45;2.90;;;;;;;18.26;73.21;93067.19;2071634;69;20148;-77
2022/08/29 05:12:38;;;;;;;5.65;2.83;;;;;;;18.52;71.03;93064.59;2071269;69;20236;-77
2022/08/29 05:15:05;;;;;;;5.65;2.78;;;;;;;18.61;69.60;93063.50;2071333;69;20140;-77
2022/08/29 05:17:32;;;;;;;6.18;2.90;;;;;;;18.68;71.09;93067.31;2071055;69;20156;-76
2022/08/29 05:19:58;;;;;;;5.10;2.92;;;;;;;18.76;70.06;93068.38;2071304;69;20230;-77
2022/08/29 05:22:23;;;;;;;4.97;2.70;;;;;;;18.76;70.73;93070.50;2068003;69;20140;-77
2022/08/29 05:24:52;;;;;;;6.75;2.72;;;;;;;18.71;70.25;93066.75;2068101;69;20152;-76
2022/08/29 05:27:20;;;;;;;5.00;2.70;;;;;;;18.70;70.09;93076.72;2071323;69;20319;-76
2022/08/29 05:29:48;;;;;;;7.07;2.95;;;;;;;18.82;69.32;93073.56;2071334;69;20160;-78
2022/08/29 05:32:16;;;;;;;10.10;3.88;;;;;;;18.87;67.99;93080.13;2071530;69;20249;-76
2022/08/29 05:34:42;;;;;;;7.10;2.80;;;;;;;18.74;70.93;93074.00;2071455;69;20219;-76
2022/08/29 05:37:11;;;;;;;3.70;2.83;;;;;;;18.74;70.15;93079.00;2071375;69;20548;-76
2022/08/29 05:39:40;;;;;;;4.38;3.15;;;;;;;18.88;69.78;93073.06;2071619;69;20175;-77
2022/08/29 05:42:07;;;;;;;5.95;2.72;;;;;;;19.04;69.33;93079.34;2071440;69;20235;-76
2022/08/29 05:44:34;;;;;;;9.73;3.10;;;;;;;19.03;69.20;93078.59;2068062;69;20576;-76
2022/08/29 05:47:02;;;;;;;4.65;2.95;;;;;;;19.04;70.14;93079.34;2070337;69;20155;-76
2022/08/29 05:49:27;;;;;;;8.40;2.80;;;;;;;19.12;68.55;93079.63;2071458;69;20298;-77
2022/08/29 05:51:55;;;;;;;5.60;3.30;;;;;;;19.11;68.69;93077.44;2071498;69;20251;-77
2022/08/29 05:54:22;;;;;;;9.90;3.63;;;;;;;19.13;68.04;93083.94;2071320;69;20299;-77
2022/08/29 05:56:48;;;;;;;5.07;3.15;;;;;;;19.07;69.14;93085.84;2071256;69;20212;-77
2022/08/29 05:59:15;;;;;;;7.15;3.30;;;;;;;18.91;70.42;93086.72;2071551;69;20298;-77
2022/08/29 06:01:42;;;;;;;5.32;2.95;;;;;;;19.13;69.02;93086.78;2071304;69;20217;-76
2022/08/29 06:04:09;;;;;;;5.32;3.15;;;;;;;19.20;69.35;93090.59;2068097;69;20172;-79
2022/08/29 06:06:35;;;;;;;5.97;3.17;;;;;;;19.26;68.50;93091.53;2068023;69;20140;-73
2022/08/29 06:09:01;;;;;;;5.30;3.58;;;;;;;19.26;68.70;93097.25;2071337;69;20226;-77
2022/08/29 06:11:29;;;;;;;7.55;3.30;;;;;;;19.48;64.99;93094.44;2071001;69;20246;-77
2022/08/29 06:13:56;;;;;;;3.42;2.95;;;;;;;19.15;69.79;93091.81;2071132;69;20548;-78
2022/08/29 06:16:28;;;;;;;3.38;3.08;;;;;;;19.30;68.85;93093.81;2070053;69;20176;-77
2022/08/29 06:18:54;;;;;;;6.03;3.15;;;;;;;18.89;72.41;93094.50;2070757;69;20693;-76
2022/08/29 06:21:20;;;;;;;4.85;3.90;;;;;;;18.75;72.96;93101.13;2071112;69;20241;-77
2022/08/29 06:23:46;;;;;;;7.22;3.50;;;;;;;18.90;72.53;93096.66;2071089;69;20249;-75
2022/08/29 06:26:15;;;;;;;4.72;3.75;;;;;;;19.27;71.35;93098.69;2070974;69;20662;-75
2022/08/29 06:28:46;;;;;;;6.53;3.70;;;;;;;19.36;70.21;93096.13;2070940;69;20600;-77
2022/08/29 06:31:13;;;;;;;4.80;3.40;;;;;;;19.50;67.19;93093.75;2070612;69;20180;-76
2022/08/29 06:33:39;;;;;;;5.93;3.47;;;;;;;19.76;67.12;93093.94;2070435;69;20543;-76
2022/08/29 06:36:06;;;;;;;7.82;3.72;;;;;;;19.85;66.38;93097.81;2071222;69;20177;-74
2022/08/29 06:38:32;;;;;;;4.22;3.70;;;;;;;19.76;67.16;93094.66;2071152;69;20156;-77
2022/08/29 06:41:12;;;;;;;6.35;3.33;;;;;;;19.99;66.55;93099.00;2071252;69;20228;-76
2022/08/29 06:43:38;;;;;;;5.88;3.60;;;;;;;19.98;66.05;93100.38;2071267;69;20573;-77
2022/08/29 06:46:03;;;;;;;8.18;3.70;;;;;;;20.03;66.81;93093.41;2071289;69;20269;-76
2022/08/29 06:48:29;;;;;;;6.78;3.50;;;;;;;19.93;67.26;93098.81;2074092;69;20591;-75
2022/08/29 06:50:56;;;;;;;5.35;3.13;;;;;;;20.14;64.48;93105.16;2074633;69;20617;-76
2022/08/29 06:53:22;;;;;;;7.00;3.33;;;;;;;20.11;63.50;93098.63;2074826;69;20171;-76
2022/08/29 06:55:48;;;;;;;4.82;3.38;;;;;;;20.21;66.08;93106.81;2074786;69;20213;-76
2022/08/29 06:58:14;;;;;;;5.15;3.20;;;;;;;20.26;66.44;93103.41;2074526;69;20163;-75
2022/08/29 07:00:41;;;;;;;3.63;2.83;;;;;;;20.30;63.73;93103.53;2074748;69;20170;-76
2022/08/29 07:03:07;;;;;;;4.82;3.53;;;;;;;20.15;65.62;93100.88;2074816;69;20204;-75
2022/08/29 07:05:33;;;;;;;4.63;3.13;;;;;;;20.12;66.84;93105.81;2074650;69;20156;-76
2022/08/29 07:07:59;;;;;;;8.23;3.50;;;;;;;20.05;67.63;93092.72;2074680;69;20224;-76
2022/08/29 07:10:25;;;;;;;5.65;3.50;;;;;;;19.86;68.21;93100.00;2074521;69;20495;-74
2022/08/29 07:12:51;;;;;;;4.38;3.55;;;;;;;20.33;66.45;93107.19;2074459;69;20243;-73
2022/08/29 07:15:19;;;;;;;4.80;3.45;;;;;;;20.42;66.28;93088.88;2074571;69;20160;-74
2022/08/29 07:17:46;;;;;;;5.88;3.60;;;;;;;21.03;63.67;93101.41;2074575;69;20599;-75
2022/08/29 07:20:13;;;;;;;5.68;3.30;;;;;;;21.41;64.94;93098.19;2071198;69;20128;-76
2022/08/29 07:22:39;;;;;;;5.30;3.17;;;;;;;21.83;63.31;93099.28;2074577;69;20152;-75
2022/08/29 07:25:05;;;;;;;4.32;3.25;;;;;;;21.96;62.40;93100.31;2071224;69;20152;-75
2022/08/29 07:27:31;;;;;;;8.85;3.33;;;;;;;22.14;61.16;93093.59;2071421;69;20507;-76
2022/08/29 07:29:56;;;;;;;4.22;3.13;;;;;;;22.40;59.36;93090.63;2071763;69;20136;-76
2022/08/29 07:32:23;;;;;;;3.90;3.45;;;;;;;23.11;58.48;93095.06;2075192;69;20542;-76
2022/08/29 07:34:50;;;;;;;6.93;3.88;;;;;;;22.70;57.11;93094.19;2071761;69;20164;-77
2022/08/29 07:37:16;;;;;;;5.13;3.47;;;;;;;23.44;55.56;93082.06;2075169;69;20541;-77
2022/08/29 07:39:42;;;;;;;5.72;3.60;;;;;;;23.67;53.33;93094.72;2075147;69;20132;-75
2022/08/29 07:42:07;;;;;;;4.82;3.20;;;;;;;23.92;54.50;93084.41;2074930;69;20147;-76
2022/08/29 07:44:33;;;;;;;5.20;3.40;;;;;;;23.86;50.93;93092.16;2075198;69;20175;-74
2022/08/29 07:46:59;;;;;;;4.97;3.50;;;;;;;24.42;51.72;93080.16;2075082;69;20143;-75
2022/08/29 07:49:26;;;;;;;8.05;3.20;;;;;;;24.69;50.02;93082.00;2075075;69;20134;-74
2022/08/29 07:51:53;;;;;;;4.43;2.67;;;;;;;24.75;50.27;93076.34;2075036;69;20148;-75
2022/08/29 07:54:20;;;;;;;3.70;2.83;;;;;;;24.73;51.13;93082.06;2071714;69;20645;-75
2022/08/29 07:56:48;;;;;;;3.97;2.85;;;;;;;25.12;46.39;93076.13;2075016;69;20254;-75
2022/08/29 07:59:14;;;;;;;3.55;2.55;;;;;;;25.14;48.74;93082.63;2071649;69;20496;-75
2022/08/29 08:01:40;;;;;;;5.13;3.03;;;;;;;25.30;47.32;93079.22;2075065;69;20234;-76
2022/08/29 08:04:06;;;;;;;3.85;3.00;;;;;;;25.53;46.77;93080.19;2074963;69;20581;-75
2022/08/29 08:06:33;;;;;;;3.08;2.72;;;;;;;25.75;48.87;93074.69;2074989;69;20154;-74
2022/08/29 08:08:59;;;;;;;3.38;2.85;;;;;;;26.15;44.87;93076.50;2075075;69;20168;-75
2022/08/29 08:11:26;;;;;;;3.65;2.88;;;;;;;26.19;46.42;93073.63;2074907;69;20591;-74
2022/08/29 08:13:56;;;;;;;3.28;2.70;;;;;;;25.92;45.19;93066.91;2075016;69;20143;-74
2022/08/29 08:16:24;;;;;;;3.97;2.95;;;;;;;25.75;46.49;93071.03;2071657;69;20576;-74
2022/08/29 08:18:51;;;;;;;3.67;2.53;;;;;;;26.07;46.90;93064.88;2071714;69;20552;-75
2022/08/29 08:21:17;;;;;;;3.95;3.00;;;;;;;25.69;44.35;93065.22;2074997;69;20144;-76
2022/08/29 08:23:43;;;;;;;3.60;2.50;;;;;;;26.26;46.10;93071.53;2075007;69;20143;-75
2022/08/29 08:26:10;;;;;;;3.13;2.80;;;;;;;26.29;45.77;93067.22;2075034;69;20162;-76
2022/08/29 08:28:36;;;;;;;4.05;2.85;;;;;;;27.18;43.49;93072.16;2074986;69;20186;-77
2022/08/29 08:31:04;;;;;;;2.65;2.45;;;;;;;27.23;42.51;93068.56;2071576;69;20143;-77
2022/08/29 08:33:30;;;;;;;4.72;2.30;;;;;;;27.82;42.69;93076.75;2075006;69;20163;-76
2022/08/29 08:35:56;;;;;;;4.80;2.80;;;;;;;27.75;41.13;93073.09;2075184;69;20551;-77
2022/08/29 08:38:22;;;;;;;4.20;3.00;;;;;;;28.12;40.84;93070.97;2074835;69;20555;-76
2022/08/29 08:40:59;;;;;;;2.63;2.42;;;;;;;27.32;39.89;93075.13;2074952;69;20144;-76
2022/08/29 08:43:43;;;;;;;3.35;2.78;;;;;;;27.07;38.85;93063.41;2074759;69;20155;-77
2022/08/29 08:46:09;;;;;;;3.10;2.75;;;;;;;28.04;40.31;93067.34;2074971;69;20144;-77
2022/08/29 08:48:37;;;;;;;2.85;2.50;;;;;;;28.35;38.93;93065.22;2075083;69;20159;-76
2022/08/29 08:51:18;;;;;;;2.90;2.60;;;;;;;28.79;37.83;93066.66;2075123;69;20261;-76
2022/08/29 08:53:49;;;;;;;3.15;2.50;;;;;;;28.36;40.23;93060.88;2075206;69;20139;-77
2022/08/29 08:56:39;;;;;;;2.72;2.53;;;;;;;30.59;36.27;93066.50;2068773;69;20546;-76
2022/08/29 08:59:12;;;;;;;2.80;2.40;;;;;;;31.01;34.31;93058.84;2073163;69;20140;-76
2022/08/29 09:01:46;;;;;;;4.40;2.83;;;;;;;29.80;35.94;93059.06;2075142;69;20144;-76
2022/08/29 09:04:33;;;;;;;2.92;2.70;;;;;;;28.52;39.23;93051.47;2075112;69;20156;-77
2022/08/29 09:07:08;;;;;;;3.05;2.47;;;;;;;30.58;34.57;93059.25;2074942;69;20595;-77
2022/08/29 09:09:55;;;;;;;5.80;2.65;;;;;;;30.59;34.52;93049.78;2074899;69;20135;-77
2022/08/29 09:12:36;;;;;;;2.58;2.35;;;;;;;31.55;33.87;93051.72;2071537;69;20483;-76
2022/08/29 09:15:08;;;;;;;3.08;2.30;;;;;;;31.01;33.49;93041.41;2074946;69;20144;-76
2022/08/29 09:17:56;;;;;;;3.25;2.40;;;;;;;31.02;35.84;93042.84;2074944;69;20224;-76
2022/08/29 09:20:27;;;;;;;3.05;2.35;;;;;;;29.46;35.42;93037.47;2071533;69;20147;-77
2022/08/29 09:23:10;;;;;;;4.13;2.40;;;;;;;28.95;37.19;93034.00;2074887;69;20227;-77
2022/08/29 09:25:35;;;;;;;;;;;;;;;30.04;36.35;93029.16;2075398;69;20197;-77
2022/08/29 09:28:05;;;;;;;2.70;2.50;;;;;;;28.96;35.34;93036.22;2074704;69;20100;-76
2022/08/29 09:30:35;;;;;;;2.88;2.58;;;;;;;29.53;37.33;93029.44;2074936;69;20188;-76
2022/08/29 09:33:15;;;;;;;2.50;2.30;;;;;;;29.42;36.74;93023.00;2075070;69;20148;-76
2022/08/29 09:35:50;;;;;;;2.67;2.40;;;;;;;30.15;35.93;93024.03;2071515;69;20158;-76
2022/08/29 09:38:16;;;;;;;2.80;2.50;;;;;;;30.84;35.44;93029.25;2075468;69;20150;-75
2022/08/29 09:40:57;;;;;;;3.63;2.90;;;;;;;30.43;35.81;93026.00;2075214;69;20143;-77
2022/08/29 09:43:38;;;;;;;3.25;2.33;;;;;;;30.10;34.78;93024.03;2074749;69;20143;-77
2022/08/29 09:46:09;;;;;;;2.50;2.30;;;;;;;30.00;35.50;93020.47;2074818;69;20140;-76
2022/08/29 09:48:42;;;;;;;2.60;2.40;;;;;;;31.21;35.27;93020.84;2074846;69;20136;-77
2022/08/29 09:51:19;;;;;;;3.58;2.47;;;;;;;30.10;34.40;93015.34;2074650;69;20144;-78
2022/08/29 09:53:45;;;;;;;2.70;2.50;;;;;;;30.21;34.63;93021.81;2071629;69;20549;-78
2022/08/29 09:56:31;;;;;;;2.58;2.38;;;;;;;29.97;36.32;93013.25;2074670;69;20167;-78
2022/08/29 09:59:10;;;;;;;5.35;2.60;;;;;;;30.20;35.32;93014.56;2074672;69;20235;-76
2022/08/29 10:01:37;;;;;;;4.88;2.60;;;;;;;32.40;32.60;93008.31;2075007;69;20229;-75
2022/08/29 10:04:07;;;;;;;4.10;2.42;;;;;;;31.08;34.66;93005.72;2074716;69;20220;-76
2022/08/29 10:06:38;;;;;;;3.30;2.50;;;;;;;32.48;32.36;93014.00;2074871;69;20179;-75
2022/08/29 10:09:10;;;;;;;3.00;2.58;;;;;;;32.85;32.78;93007.50;2074826;69;20223;-77
2022/08/29 10:11:48;;;;;;;6.57;2.65;;;;;;;32.91;30.52;93007.44;2074579;69;20230;-75
2022/08/29 10:14:19;;;;;;;2.40;2.20;;;;;;;33.31;32.08;93017.63;2074710;69;20198;-78
2022/08/29 10:20:04;;;;;;;8.13;3.33;;;;;;;33.35;31.40;93002.91;2063787;69;20195;-75
2022/08/29 10:22:57;;;;;;;2.67;2.45;;;;;;;31.67;32.80;92994.84;2073806;69;20215;-77
2022/08/29 10:25:40;;;;;;;3.72;2.63;;;;;;;31.26;33.01;92998.25;2074660;69;20140;-76
2022/08/29 10:28:30;;;;;;;3.35;2.88;;;;;;;32.35;32.21;92992.38;2071718;69;20148;-76
2022/08/29 10:31:08;;;;;;;4.90;3.08;;;;;;;32.61;31.47;92994.81;2071291;69;20179;-78
2022/08/29 10:33:46;;;;;;;4.32;2.88;;;;;;;34.23;29.09;92994.50;2071467;69;20144;-78
2022/08/29 10:36:41;;;;;;;5.18;2.58;;;;;;;34.56;29.46;92997.34;2070937;69;20214;-78
2022/08/29 10:39:24;;;;;;;2.85;2.42;;;;;;;33.55;27.86;92987.22;2071144;69;20614;-76
2022/08/29 10:42:12;;;;;;;3.85;2.17;;;;;;;34.57;29.42;92976.13;2067761;69;20206;-77
2022/08/29 10:44:59;;;;;;;3.40;2.35;;;;;;;33.50;30.38;92982.25;2071361;69;20211;-77
2022/08/29 10:47:35;;;;;;;3.40;2.70;;;;;;;34.66;30.09;92987.59;2071233;69;20147;-77
2022/08/29 10:50:33;;;;;;;3.35;2.30;;;;;;;35.60;28.46;92983.59;2067911;69;20136;-77
2022/08/29 10:53:20;;;;;;;2.55;2.33;;;;;;;35.30;27.47;92985.16;2064577;69;20194;-77
2022/08/29 10:55:52;;;;;;;2.90;2.15;;;;;;;37.50;27.13;92986.19;2071140;69;20148;-77
2022/08/29 10:58:45;;;;;;;3.72;2.20;;;;;;;39.26;25.00;92979.19;2070929;69;20156;-77
2022/08/29 11:01:32;;;;;;;3.13;2.15;;;;;;;39.37;23.50;92980.19;2071299;69;20643;-77
2022/08/29 11:04:06;;;;;;;2.72;2.17;;;;;;;42.77;20.67;92988.84;2071339;69;20169;-76
2022/08/29 11:06:40;;;;;;;4.03;2.08;;;;;;;43.63;18.28;92980.84;2071170;69;20140;-75
2022/08/29 11:09:19;;;;;;;3.42;1.80;;;;;;;43.85;19.32;92973.56;2071205;69;20225;-77
2022/08/29 11:12:10;;;;;;;4.35;1.92;;;;;;;45.20;18.04;92976.03;2070999;69;20603;-75
2022/08/29 11:14:45;;;;;;;4.30;1.95;;;;;;;45.33;17.04;92977.34;2053530;70;20177;-76
2022/08/29 11:17:15;;;;;;;4.93;1.92;;;;;;;43.69;17.81;92974.53;2053801;70;20153;-76
2022/08/29 11:19:59;;;;;;;4.35;2.10;;;;;;;44.95;17.06;92968.75;2053836;70;20169;-76
2022/08/29 11:22:34;;;;;;;1.75;1.50;;;;;;;47.35;15.44;92971.09;2053650;70;20134;-76
2022/08/29 11:25:08;;;;;;;4.07;1.80;;;;;;;46.66;16.49;92964.34;2053674;70;20583;-76
2022/08/29 11:27:45;;;;;;;3.10;1.80;;;;;;;48.26;15.88;92960.28;2053603;69;20146;-77
2022/08/29 11:30:22;;;;;;;4.97;1.90;;;;;;;48.54;15.24;92974.50;2053877;69;20670;-77
2022/08/29 11:33:19;;;;;;;3.10;1.83;;;;;;;48.16;14.94;92958.13;2053632;69;20173;-76
2022/08/29 11:36:24;;;;;;;4.07;1.75;;;;;;;46.70;15.32;92955.13;2052845;69;20162;-75
2022/08/29 11:38:51;;;;;;;2.17;1.48;;;;;;;48.26;14.47;92956.59;2053730;70;20185;-79
2022/08/29 11:41:17;;;;;;;4.53;1.83;;;;;;;46.46;15.51;92949.34;2053637;69;20118;-76
2022/08/29 11:43:51;;;;;;;3.63;1.45;;;;;;;46.95;15.88;92942.81;2053738;69;20142;-74
2022/08/29 11:46:37;;;;;;;3.15;1.60;;;;;;;49.09;14.85;92952.06;2050981;70;20186;-76
2022/08/29 11:49:32;;;;;;;3.30;1.50;;;;;;;50.77;13.87;92944.25;2053698;70;20195;-76
2022/08/29 11:52:07;;;;;;;3.28;1.60;;;;;;;49.68;13.67;92934.41;2059893;69;20157;-75
2022/08/29 11:54:33;;;;;;;4.07;1.70;;;;;;;47.13;14.52;92919.84;2064429;69;20133;-76